Time;durP1;ratioP1;P1;durP2;ratioP2;P2;SDS_P1;SDS_P2;PMS_P1;PMS_P2;Temp;Humidity;BMP_temperature;BMP_pressure;BME280_temperature;BME280_humidity;BME280_pressure;Samples;Min_cycle;Max_cycle;Signal;HPM_P1;HPM_P2
2021/12/01 00:01:54;;;;;;;;;;;23.10;54.70;;;;;;5142231;27;988;-35
2021/12/01 00:04:21;;;;;;;;;;;23.10;54.80;;;;;;5127476;27;1784;-34
2021/12/01 00:06:48;;;;;;;;;;;23.10;54.70;;;;;;5142234;27;936;-33
2021/12/01 00:09:15;;;;;;;;;;;23.10;54.60;;;;;;5142243;27;1019;-33
2021/12/01 00:11:43;;;;;;;;;;;23.00;54.30;;;;;;5142187;27;964;-34
2021/12/01 00:14:10;;;;;;;;;;;22.90;54.40;;;;;;5129284;27;957;-35
2021/12/01 00:16:36;;;;;;;;;;;23.00;54.70;;;;;;5141726;27;1800;-34
2021/12/01 00:19:03;;;;;;;;;;;22.90;54.20;;;;;;5141936;27;1902;-33
2021/12/01 00:21:30;;;;;;;;;;;22.80;54.00;;;;;;5140631;27;984;-33
2021/12/01 00:23:56;;;;;;;;;;;22.70;53.40;;;;;;5136617;27;1846;-35
2021/12/01 00:26:23;;;;;;;;;;;22.60;53.00;;;;;;5140530;27;1048;-35
2021/12/01 00:28:51;;;;;;;;;;;22.50;52.80;;;;;;5141546;27;1023;-33
2021/12/01 00:31:18;;;;;;;;;;;22.40;52.50;;;;;;5141238;27;936;-33
2021/12/01 00:33:45;;;;;;;;;;;22.30;52.10;;;;;;5136101;27;1115;-34
2021/12/01 00:36:14;;;;;;;;;;;22.30;52.20;;;;;;5139371;27;1091;-34
2021/12/01 00:38:41;;;;;;;;;;;22.30;52.80;;;;;;5141417;27;1999;-36
2021/12/01 00:41:08;;;;;;;;;;;22.30;52.80;;;;;;5141561;27;1019;-33
2021/12/01 00:43:38;;;;;;;;;;;22.40;53.30;;;;;;5134566;27;983;-35
2021/12/01 00:46:13;;;;;;;;;;;22.30;53.30;;;;;;5138660;27;1036;-35
2021/12/01 00:48:39;;;;;;;;;;;22.30;53.20;;;;;;5141444;27;974;-34
2021/12/01 00:51:06;;;;;;;;;;;22.30;53.50;;;;;;5140892;27;996;-31
2021/12/01 00:53:33;;;;;;;;;;;22.30;53.50;;;;;;5134590;27;1007;-31
2021/12/01 00:56:00;;;;;;;;;;;22.30;53.70;;;;;;5138875;27;1284;-31
2021/12/01 00:58:27;;;;;;;;;;;22.30;53.80;;;;;;5140890;27;1976;-31
2021/12/01 01:00:55;;;;;;;;;;;22.30;53.60;;;;;;5140681;27;951;-32
2021/12/01 01:03:23;;;;;;;;;;;22.30;53.80;;;;;;5131239;27;1003;-33
2021/12/01 01:05:49;;;;;;;;;;;22.30;54.00;;;;;;5136724;27;1149;-32
2021/12/01 01:08:17;;;;;;;;;;;22.30;54.10;;;;;;5140898;27;1003;-33
2021/12/01 01:11:08;;;;;;;;;;;22.30;54.10;;;;;;5141223;27;992;-32
2021/12/01 01:16:26;;;;;;;;;;;22.20;54.20;;;;;;5137276;27;911;-33
2021/12/01 01:18:59;;;;;;;;;;;22.30;54.30;;;;;;5140192;27;1993;-33
2021/12/01 01:21:28;;;;;;;;;;;22.20;54.10;;;;;;5140704;27;1011;-32
2021/12/01 01:23:56;;;;;;;;;;;22.20;54.20;;;;;;5128970;27;1004;-32
2021/12/01 01:26:24;;;;;;;;;;;22.20;54.20;;;;;;5140629;27;1008;-32
2021/12/01 01:28:51;;;;;;;;;;;22.20;54.30;;;;;;5140519;27;941;-32
2021/12/01 01:31:18;;;;;;;;;;;22.20;54.30;;;;;;5139910;27;956;-32
2021/12/01 01:33:45;;;;;;;;;;;22.20;54.30;;;;;;5129549;27;1048;-32
2021/12/01 01:36:13;;;;;;;;;;;22.20;54.30;;;;;;5136446;27;980;-32
2021/12/01 01:38:40;;;;;;;;;;;22.20;54.50;;;;;;5139862;27;1882;-32
2021/12/01 01:41:09;;;;;;;;;;;22.10;54.40;;;;;;5140286;27;880;-34
2021/12/01 01:43:36;;;;;;;;;;;22.20;54.50;;;;;;5131365;27;1026;-32
2021/12/01 01:46:03;;;;;;;;;;;22.20;54.60;;;;;;5136581;27;1012;-32
2021/12/01 01:48:31;;;;;;;;;;;22.20;54.60;;;;;;5140419;27;955;-32
2021/12/01 01:50:59;;;;;;;;;;;22.20;54.50;;;;;;5139953;27;979;-32
2021/12/01 01:53:28;;;;;;;;;;;22.10;55.70;;;;;;5130014;27;988;-33
2021/12/01 01:56:01;;;;;;;;;;;22.10;54.60;;;;;;5136288;27;1054;-33
2021/12/01 01:58:28;;;;;;;;;;;22.10;54.60;;;;;;5139987;27;1914;-33
2021/12/01 02:01:06;;;;;;;;;;;22.10;54.70;;;;;;5139799;27;968;-33
2021/12/01 02:03:33;;;;;;;;;;;22.10;54.60;;;;;;5133380;27;995;-34
2021/12/01 02:06:00;;;;;;;;;;;22.10;54.60;;;;;;5135562;27;1258;-33
2021/12/01 02:08:30;;;;;;;;;;;22.10;54.60;;;;;;5140054;27;956;-34
2021/12/01 02:11:01;;;;;;;;;;;22.10;54.60;;;;;;5139668;27;999;-34
2021/12/01 02:13:28;;;;;;;;;;;22.00;54.70;;;;;;5129898;27;1012;-33
2021/12/01 02:15:55;;;;;;;;;;;22.00;54.70;;;;;;5135257;27;975;-35
2021/12/01 02:18:23;;;;;;;;;;;22.00;54.80;;;;;;5139849;27;1902;-33
2021/12/01 02:21:03;;;;;;;;;;;22.00;54.80;;;;;;5140212;27;911;-33
2021/12/01 02:23:29;;;;;;;;;;;22.00;54.90;;;;;;5129643;27;1027;-33
2021/12/01 02:25:57;;;;;;;;;;;22.00;55.00;;;;;;5135272;27;949;-35
2021/12/01 02:28:24;;;;;;;;;;;22.00;55.00;;;;;;5139546;27;1039;-34
2021/12/01 02:30:51;;;;;;;;;;;22.00;55.00;;;;;;5139464;27;1031;-34
2021/12/01 02:33:19;;;;;;;;;;;22.00;55.00;;;;;;5132510;27;945;-34
2021/12/01 02:35:46;;;;;;;;;;;22.00;55.00;;;;;;5136056;27;1008;-36
2021/12/01 02:38:14;;;;;;;;;;;21.90;55.00;;;;;;5139010;27;1971;-34
2021/12/01 02:40:41;;;;;;;;;;;22.00;55.10;;;;;;5139007;27;1007;-34
2021/12/01 02:43:08;;;;;;;;;;;21.90;55.10;;;;;;5132865;27;944;-34
2021/12/01 02:45:34;;;;;;;;;;;21.90;55.10;;;;;;5129582;27;1000;-34
2021/12/01 02:48:02;;;;;;;;;;;21.90;55.00;;;;;;5139301;27;1010;-34
2021/12/01 02:50:29;;;;;;;;;;;21.90;55.00;;;;;;5139236;27;944;-35
2021/12/01 02:52:58;;;;;;;;;;;21.90;55.00;;;;;;5133750;27;993;-34
2021/12/01 02:55:28;;;;;;;;;;;21.90;55.20;;;;;;5131302;27;1047;-34
2021/12/01 02:57:59;;;;;;;;;;;21.90;55.10;;;;;;5138969;27;996;-34
2021/12/01 03:00:28;;;;;;;;;;;21.90;55.20;;;;;;5139418;28;1914;-36
2021/12/01 03:02:57;;;;;;;;;;;21.90;55.20;;;;;;5132861;28;988;-35
2021/12/01 03:05:24;;;;;;;;;;;21.90;55.20;;;;;;5130120;28;1062;-34
2021/12/01 03:07:52;;;;;;;;;;;21.90;55.30;;;;;;5138809;28;980;-35
2021/12/01 03:10:19;;;;;;;;;;;21.90;55.30;;;;;;5138414;28;980;-35
2021/12/01 03:12:47;;;;;;;;;;;21.90;55.30;;;;;;5134842;28;999;-34
2021/12/01 03:15:16;;;;;;;;;;;21.90;55.40;;;;;;5134009;28;996;-34
2021/12/01 03:17:44;;;;;;;;;;;21.80;55.30;;;;;;5138860;28;1047;-35
2021/12/01 03:20:11;;;;;;;;;;;21.80;55.30;;;;;;5138970;28;2000;-34
2021/12/01 03:22:38;;;;;;;;;;;21.80;55.40;;;;;;5133727;28;1031;-33
2021/12/01 03:25:08;;;;;;;;;;;21.80;55.30;;;;;;5131983;28;947;-34
2021/12/01 03:27:36;;;;;;;;;;;21.80;55.40;;;;;;5138722;28;987;-35
2021/12/01 03:30:05;;;;;;;;;;;21.90;55.40;;;;;;5138934;28;1004;-34
2021/12/01 03:32:34;;;;;;;;;;;21.90;55.30;;;;;;5136195;28;960;-34
2021/12/01 03:35:03;;;;;;;;;;;21.90;55.40;;;;;;5128817;28;912;-35
2021/12/01 03:37:29;;;;;;;;;;;21.90;55.40;;;;;;5138363;28;948;-34
2021/12/01 03:40:00;;;;;;;;;;;21.90;55.40;;;;;;5138157;28;1906;-34
2021/12/01 03:42:27;;;;;;;;;;;21.90;55.40;;;;;;5136351;28;978;-34
2021/12/01 03:44:53;;;;;;;;;;;21.90;55.40;;;;;;5124444;28;959;-38
2021/12/01 03:50:25;;;;;;;;;;;21.80;55.40;;;;;;5138309;28;653;-35
2021/12/01 03:52:52;;;;;;;;;;;21.80;55.30;;;;;;5132819;28;1011;-34
2021/12/01 03:55:19;;;;;;;;;;;21.80;56.50;;;;;;5130364;27;1012;-34
2021/12/01 03:57:46;;;;;;;;;;;21.90;55.40;;;;;;5142339;27;1008;-34
2021/12/01 04:00:14;;;;;;;;;;;21.80;55.30;;;;;;5142522;27;1882;-34
2021/12/01 04:02:42;;;;;;;;;;;21.80;55.30;;;;;;5136832;27;1023;-34
2021/12/01 04:05:09;;;;;;;;;;;21.80;55.40;;;;;;5136266;27;1053;-34
2021/12/01 04:07:37;;;;;;;;;;;21.80;55.30;;;;;;5141728;27;1011;-35
2021/12/01 04:10:04;;;;;;;;;;;21.80;55.40;;;;;;5142205;27;1043;-36
2021/12/01 04:12:32;;;;;;;;;;;21.80;55.40;;;;;;5139803;27;908;-36
2021/12/01 04:14:59;;;;;;;;;;;21.80;55.30;;;;;;5128322;27;1001;-33
2021/12/01 04:17:25;;;;;;;;;;;21.80;55.30;;;;;;5141521;27;950;-36
2021/12/01 04:19:52;;;;;;;;;;;21.80;55.30;;;;;;5141257;27;1910;-34
2021/12/01 04:22:19;;;;;;;;;;;21.80;55.30;;;;;;5140557;27;967;-34
2021/12/01 04:24:47;;;;;;;;;;;21.80;55.40;;;;;;5127351;27;1019;-35
2021/12/01 04:27:14;;;;;;;;;;;21.80;55.30;;;;;;5141490;27;986;-34
2021/12/01 04:29:41;;;;;;;;;;;21.80;55.30;;;;;;5141689;27;1020;-34
2021/12/01 04:32:08;;;;;;;;;;;21.80;55.30;;;;;;5141594;27;957;-34
2021/12/01 04:34:38;;;;;;;;;;;21.80;55.50;;;;;;5126651;27;990;-35
2021/12/01 04:37:08;;;;;;;;;;;21.80;55.50;;;;;;5141532;27;1860;-34
2021/12/01 04:39:38;;;;;;;;;;;21.80;55.30;;;;;;5141122;27;1985;-33
2021/12/01 04:42:07;;;;;;;;;;;21.80;55.40;;;;;;5140797;27;952;-34
2021/12/01 04:44:35;;;;;;;;;;;21.80;55.50;;;;;;5130070;27;954;-35
2021/12/01 04:47:03;;;;;;;;;;;21.80;55.50;;;;;;5141186;27;984;-33
2021/12/01 04:49:31;;;;;;;;;;;21.70;55.50;;;;;;5141179;27;976;-35
2021/12/01 04:52:00;;;;;;;;;;;21.80;55.60;;;;;;5141176;27;1002;-34
2021/12/01 04:54:27;;;;;;;;;;;21.70;55.60;;;;;;5122302;27;1028;-35
2021/12/01 04:56:54;;;;;;;;;;;21.80;55.50;;;;;;5141002;27;992;-34
2021/12/01 04:59:25;;;;;;;;;;;21.80;55.50;;;;;;5140648;27;1976;-33
2021/12/01 05:01:54;;;;;;;;;;;21.90;55.20;;;;;;5140491;27;1015;-35
2021/12/01 05:04:21;;;;;;;;;;;22.00;55.20;;;;;;5127039;27;1054;-33
2021/12/01 05:06:47;;;;;;;;;;;22.00;55.10;;;;;;5140464;27;1058;-35
2021/12/01 05:09:14;;;;;;;;;;;22.10;55.00;;;;;;5140508;27;972;-33
2021/12/01 05:11:41;;;;;;;;;;;22.10;54.70;;;;;;5140853;27;957;-35
2021/12/01 05:14:08;;;;;;;;;;;22.20;54.70;;;;;;5125441;27;1031;-33
2021/12/01 05:16:37;;;;;;;;;;;22.20;54.80;;;;;;5140211;27;937;-33
2021/12/01 05:19:05;;;;;;;;;;;22.10;54.60;;;;;;5140234;27;1901;-34
2021/12/01 05:21:32;;;;;;;;;;;22.20;54.80;;;;;;5139972;27;913;-34
2021/12/01 05:23:59;;;;;;;;;;;22.20;54.70;;;;;;5128784;27;1976;-34
2021/12/01 05:26:26;;;;;;;;;;;22.20;54.70;;;;;;5140207;27;1026;-35
2021/12/01 05:28:52;;;;;;;;;;;22.20;54.70;;;;;;5140000;27;994;-35
2021/12/01 05:31:19;;;;;;;;;;;22.20;54.70;;;;;;5139446;27;1007;-34
2021/12/01 05:33:47;;;;;;;;;;;22.20;54.70;;;;;;5126852;27;1019;-34
2021/12/01 05:36:15;;;;;;;;;;;22.20;54.70;;;;;;5134980;27;1006;-34
2021/12/01 05:38:42;;;;;;;;;;;22.20;54.70;;;;;;5139747;27;940;-33
2021/12/01 05:41:09;;;;;;;;;;;22.20;54.90;;;;;;5139156;27;1984;-34
2021/12/01 05:43:36;;;;;;;;;;;22.20;54.70;;;;;;5130716;27;925;-33
2021/12/01 05:46:02;;;;;;;;;;;22.20;54.80;;;;;;5135041;27;940;-33
2021/12/01 05:48:29;;;;;;;;;;;22.20;54.80;;;;;;5138162;27;1015;-34
2021/12/01 05:50:58;;;;;;;;;;;22.20;54.90;;;;;;5138956;27;1142;-34
2021/12/01 05:53:25;;;;;;;;;;;22.20;54.90;;;;;;5129756;27;956;-35
2021/12/01 05:55:52;;;;;;;;;;;22.10;54.80;;;;;;5135166;27;1027;-33
2021/12/01 05:58:19;;;;;;;;;;;22.20;55.00;;;;;;5138665;27;924;-34
2021/12/01 06:00:46;;;;;;;;;;;22.10;54.90;;;;;;5138666;27;1994;-33
2021/12/01 06:03:13;;;;;;;;;;;22.20;55.00;;;;;;5135043;27;1016;-33
2021/12/01 06:05:40;;;;;;;;;;;22.20;55.00;;;;;;5134358;27;1203;-34
2021/12/01 06:08:08;;;;;;;;;;;22.10;55.00;;;;;;5138234;27;1000;-33
2021/12/01 06:10:34;;;;;;;;;;;22.10;55.10;;;;;;5137289;27;951;-34
2021/12/01 06:13:01;;;;;;;;;;;22.00;55.10;;;;;;5133260;27;948;-33
2021/12/01 06:15:31;;;;;;;;;;;22.10;55.10;;;;;;5130896;27;834;-34
2021/12/01 06:18:00;;;;;;;;;;;22.00;55.20;;;;;;5137029;27;991;-35
2021/12/01 06:20:27;;;;;;;;;;;22.10;55.30;;;;;;5136625;27;1914;-34
2021/12/01 06:22:54;;;;;;;;;;;22.00;55.40;;;;;;5131387;27;1003;-33
2021/12/01 06:25:26;;;;;;;;;;;22.00;55.40;;;;;;5131646;27;921;-34
2021/12/01 06:27:53;;;;;;;;;;;22.00;55.40;;;;;;5137056;27;1094;-33
2021/12/01 06:30:21;;;;;;;;;;;22.00;55.60;;;;;;5135269;27;2070;-33
2021/12/01 06:32:48;;;;;;;;;;;22.00;55.60;;;;;;5131682;27;983;-33
2021/12/01 06:35:15;;;;;;;;;;;22.00;55.50;;;;;;5129411;27;892;-33
2021/12/01 06:37:46;;;;;;;;;;;22.00;55.50;;;;;;5136760;27;1479;-32
2021/12/01 06:40:13;;;;;;;;;;;21.90;55.60;;;;;;5137408;27;1975;-33
2021/12/01 06:42:41;;;;;;;;;;;22.00;55.60;;;;;;5131109;27;983;-33
2021/12/01 06:45:09;;;;;;;;;;;21.90;55.60;;;;;;5130383;27;1073;-33
2021/12/01 06:47:36;;;;;;;;;;;22.00;55.50;;;;;;5135772;27;987;-32
2021/12/01 06:50:04;;;;;;;;;;;21.90;55.40;;;;;;5135874;27;980;-32
2021/12/01 06:52:31;;;;;;;;;;;21.90;55.50;;;;;;5134698;27;1026;-32
2021/12/01 06:54:58;;;;;;;;;;;22.00;55.60;;;;;;5126274;27;941;-33
2021/12/01 06:57:31;;;;;;;;;;;21.90;55.70;;;;;;5136224;27;951;-33
2021/12/01 07:00:00;;;;;;;;;;;21.90;55.70;;;;;;5136229;28;1875;-33
2021/12/01 07:02:27;;;;;;;;;;;21.90;55.70;;;;;;5134245;28;1788;-33
2021/12/01 07:04:54;;;;;;;;;;;21.90;55.70;;;;;;5125172;28;1220;-33
2021/12/01 07:07:21;;;;;;;;;;;21.90;55.70;;;;;;5135040;28;1071;-33
2021/12/01 07:09:50;;;;;;;;;;;21.80;55.60;;;;;;5135125;28;928;-33
2021/12/01 07:12:17;;;;;;;;;;;21.80;55.60;;;;;;5136678;28;997;-33
2021/12/01 07:14:44;;;;;;;;;;;21.80;55.60;;;;;;5127603;28;884;-32
2021/12/01 07:17:12;;;;;;;;;;;21.80;55.60;;;;;;5135710;28;936;-34
2021/12/01 07:19:39;;;;;;;;;;;21.80;55.70;;;;;;5135437;28;945;-33
2021/12/01 07:22:06;;;;;;;;;;;21.90;55.70;;;;;;5135242;28;1978;-34
2021/12/01 07:24:32;;;;;;;;;;;21.80;55.60;;;;;;5125391;28;972;-33
2021/12/01 07:27:02;;;;;;;;;;;21.80;55.60;;;;;;5135606;28;988;-34
2021/12/01 07:29:30;;;;;;;;;;;21.80;55.70;;;;;;5135996;27;1019;-33
2021/12/01 07:31:57;;;;;;;;;;;21.80;55.70;;;;;;5139744;27;1025;-36
2021/12/01 07:34:25;;;;;;;;;;;21.80;55.70;;;;;;5129816;27;952;-34
2021/12/01 07:36:52;;;;;;;;;;;21.80;55.60;;;;;;5139612;27;968;-33
2021/12/01 07:39:19;;;;;;;;;;;21.80;55.70;;;;;;5140234;27;1027;-34
2021/12/01 07:41:46;;;;;;;;;;;21.80;55.70;;;;;;5139323;27;1968;-33
2021/12/01 07:44:16;;;;;;;;;;;21.80;55.60;;;;;;5126300;27;932;-33
2021/12/01 07:46:43;;;;;;;;;;;21.80;55.60;;;;;;5138617;27;968;-33
2021/12/01 07:49:13;;;;;;;;;;;21.80;55.60;;;;;;5140012;27;1023;-35
2021/12/01 07:51:41;;;;;;;;;;;21.80;55.70;;;;;;5139577;27;1022;-33
2021/12/01 07:54:07;;;;;;;;;;;21.80;55.70;;;;;;5131357;27;1067;-34
2021/12/01 07:56:34;;;;;;;;;;;21.80;55.70;;;;;;5135722;27;984;-33
2021/12/01 07:59:01;;;;;;;;;;;21.80;55.70;;;;;;5139201;27;978;-33
2021/12/01 08:01:28;;;;;;;;;;;21.80;55.70;;;;;;5138138;27;1901;-33
2021/12/01 08:03:55;;;;;;;;;;;21.80;55.70;;;;;;5134158;27;1015;-32
2021/12/01 08:06:22;;;;;;;;;;;21.80;55.70;;;;;;5137980;27;1011;-33
2021/12/01 08:08:51;;;;;;;;;;;21.80;55.60;;;;;;5140199;27;1002;-34
2021/12/01 08:11:17;;;;;;;;;;;21.80;55.60;;;;;;5138943;27;967;-33
2021/12/01 08:13:44;;;;;;;;;;;21.80;55.70;;;;;;5132873;27;1008;-33
2021/12/01 08:16:12;;;;;;;;;;;21.80;55.70;;;;;;5135946;27;1023;-33
2021/12/01 08:18:39;;;;;;;;;;;21.70;55.60;;;;;;5139040;27;1778;-33
2021/12/01 08:21:06;;;;;;;;;;;21.80;55.70;;;;;;5138223;27;1901;-33
2021/12/01 08:23:33;;;;;;;;;;;21.80;55.70;;;;;;5135747;27;1008;-33
2021/12/01 08:26:01;;;;;;;;;;;21.70;55.60;;;;;;5137213;27;944;-32
2021/12/01 08:28:28;;;;;;;;;;;21.70;55.70;;;;;;5139489;27;894;-32
2021/12/01 08:30:59;;;;;;;;;;;21.70;55.60;;;;;;5139420;27;1012;-33
2021/12/01 08:33:29;;;;;;;;;;;21.70;55.70;;;;;;5137233;27;1008;-33
2021/12/01 08:35:56;;;;;;;;;;;21.70;55.70;;;;;;5138102;27;940;-36
2021/12/01 08:38:26;;;;;;;;;;;21.70;55.70;;;;;;5140227;27;978;-33
2021/12/01 08:40:53;;;;;;;;;;;21.70;55.60;;;;;;5140336;27;1953;-33
2021/12/01 08:43:21;;;;;;;;;;;21.70;55.70;;;;;;5135556;27;1043;-33
2021/12/01 08:45:48;;;;;;;;;;;21.70;55.70;;;;;;5139073;27;1019;-32
2021/12/01 08:48:14;;;;;;;;;;;21.70;55.70;;;;;;5139563;27;964;-33
2021/12/01 08:50:41;;;;;;;;;;;21.70;55.70;;;;;;5139069;27;970;-33
2021/12/01 08:53:08;;;;;;;;;;;21.70;55.70;;;;;;5135494;27;944;-33
2021/12/01 08:55:37;;;;;;;;;;;21.70;55.60;;;;;;5135642;27;1040;-34
2021/12/01 08:58:06;;;;;;;;;;;21.70;55.60;;;;;;5139228;27;999;-33
2021/12/01 09:00:37;;;;;;;;;;;21.70;56.70;;;;;;5135586;27;1893;-33
2021/12/01 09:03:04;;;;;;;;;;;21.70;55.60;;;;;;5128675;27;1067;-34
2021/12/01 09:05:31;;;;;;;;;;;21.70;55.70;;;;;;5131354;27;1243;-33
2021/12/01 09:07:57;;;;;;;;;;;21.70;55.80;;;;;;5139239;27;1013;-33
2021/12/01 09:10:24;;;;;;;;;;;21.70;55.70;;;;;;5137318;27;957;-33
2021/12/01 09:12:51;;;;;;;;;;;21.60;55.80;;;;;;5129653;27;984;-33
2021/12/01 09:15:18;;;;;;;;;;;21.60;55.70;;;;;;5137408;27;980;-33
2021/12/01 09:17:46;;;;;;;;;;;21.60;56.80;;;;;;5139163;27;1016;-33
2021/12/01 09:20:13;;;;;;;;;;;21.60;56.50;;;;;;5139206;27;929;-35
2021/12/01 09:22:40;;;;;;;;;;;21.80;56.70;;;;;;5138170;27;2670;-33
2021/12/01 09:25:08;;;;;;;;;;;21.80;56.40;;;;;;5138390;27;932;-35
2021/12/01 09:27:35;;;;;;;;;;;21.80;56.80;;;;;;5139176;27;912;-33
2021/12/01 09:30:02;;;;;;;;;;;21.90;56.40;;;;;;5139237;27;1802;-34
2021/12/01 09:32:29;;;;;;;;;;;21.90;56.40;;;;;;5138634;27;994;-33
2021/12/01 09:34:57;;;;;;;;;;;21.90;56.40;;;;;;5139538;27;1038;-33
2021/12/01 09:37:24;;;;;;;;;;;22.00;57.00;;;;;;5138939;27;1036;-35
2021/12/01 09:39:51;;;;;;;;;;;22.00;57.20;;;;;;5139605;27;1092;-33
2021/12/01 09:42:18;;;;;;;;;;;22.10;57.10;;;;;;5138988;27;1917;-34
2021/12/01 09:44:44;;;;;;;;;;;22.20;57.10;;;;;;5137538;27;984;-33
2021/12/01 09:47:13;;;;;;;;;;;22.30;57.10;;;;;;5139175;27;1066;-34
2021/12/01 09:49:43;;;;;;;;;;;22.30;56.90;;;;;;5138814;27;1055;-33
2021/12/01 09:52:11;;;;;;;;;;;22.40;57.10;;;;;;5138850;27;975;-33
2021/12/01 09:54:39;;;;;;;;;;;22.50;57.10;;;;;;5137547;27;971;-34
2021/12/01 09:57:06;;;;;;;;;;;22.60;57.10;;;;;;5138375;27;873;-34
2021/12/01 09:59:33;;;;;;;;;;;22.60;57.20;;;;;;5138340;27;1020;-33
2021/12/01 10:02:00;;;;;;;;;;;22.60;57.10;;;;;;5138809;27;1898;-34
2021/12/01 10:04:28;;;;;;;;;;;22.70;57.00;;;;;;5138710;27;1196;-34
2021/12/01 10:07:11;;;;;;;;;;;22.70;57.10;;;;;;5137661;27;989;-35
2021/12/01 10:09:42;;;;;;;;;;;22.70;56.80;;;;;;5138126;27;1071;-33
2021/12/01 10:12:10;;;;;;;;;;;22.80;56.80;;;;;;5137809;27;1013;-33
2021/12/01 10:14:36;;;;;;;;;;;22.80;56.80;;;;;;5137852;27;2061;-33
2021/12/01 10:17:04;;;;;;;;;;;22.80;56.70;;;;;;5137252;27;1057;-34
2021/12/01 10:19:30;;;;;;;;;;;22.80;56.70;;;;;;5137857;27;1008;-33
2021/12/01 10:21:59;;;;;;;;;;;22.80;56.20;;;;;;5137087;27;1994;-34
2021/12/01 10:24:31;;;;;;;;;;;22.80;56.30;;;;;;5137889;27;1002;-35
2021/12/01 10:26:59;;;;;;;;;;;22.70;56.10;;;;;;5137662;27;959;-33
2021/12/01 10:29:30;;;;;;;;;;;22.70;56.30;;;;;;5137135;27;967;-33
2021/12/01 10:31:58;;;;;;;;;;;22.70;56.40;;;;;;5137186;27;1007;-35
2021/12/01 10:34:27;;;;;;;;;;;22.70;56.10;;;;;;5133747;27;972;-33
2021/12/01 10:37:10;;;;;;;;;;;22.70;56.20;;;;;;5137895;27;992;-33
2021/12/01 10:39:37;;;;;;;;;;;22.70;55.90;;;;;;5136717;27;980;-34
2021/12/01 10:42:06;;;;;;;;;;;22.70;55.40;;;;;;5137895;27;1901;-33
2021/12/01 10:44:34;;;;;;;;;;;22.70;55.40;;;;;;5136595;27;1003;-37
2021/12/01 10:47:07;;;;;;;;;;;22.70;55.50;;;;;;5137247;27;1028;-35
2021/12/01 10:49:39;;;;;;;;;;;22.60;55.50;;;;;;5136787;27;956;-34
2021/12/01 10:52:07;;;;;;;;;;;22.60;55.70;;;;;;5136238;27;1803;-36
2021/12/01 10:54:35;;;;;;;;;;;22.70;56.70;;;;;;5137244;27;921;-34
2021/12/01 10:57:19;;;;;;;;;;;22.70;55.70;;;;;;5136297;28;1072;-33
2021/12/01 10:59:46;;;;;;;;;;;22.70;55.70;;;;;;5133312;27;948;-33
2021/12/01 11:02:15;;;;;;;;;;;22.60;55.50;;;;;;5132087;28;1905;-34
2021/12/01 11:04:42;;;;;;;;;;;22.60;55.80;;;;;;5136347;27;1164;-34
2021/12/01 11:07:25;;;;;;;;;;;22.60;55.80;;;;;;5136960;28;1019;-34
2021/12/01 11:10:07;;;;;;;;;;;22.60;55.80;;;;;;5136750;28;988;-34
2021/12/01 11:12:35;;;;;;;;;;;22.60;55.80;;;;;;5135338;28;1700;-34
2021/12/01 11:15:15;;;;;;;;;;;22.50;55.60;;;;;;5136966;28;1848;-33
2021/12/01 11:17:42;;;;;;;;;;;22.60;55.60;;;;;;5137133;28;967;-35
2021/12/01 11:20:09;;;;;;;;;;;22.50;55.70;;;;;;5134931;28;1016;-33
2021/12/01 11:22:37;;;;;;;;;;;22.50;55.70;;;;;;5133244;28;1901;-34
2021/12/01 11:25:22;;;;;;;;;;;22.50;55.60;;;;;;5136609;28;960;-33
2021/12/01 11:27:51;;;;;;;;;;;22.60;55.70;;;;;;5135849;28;1014;-34
2021/12/01 11:30:19;;;;;;;;;;;22.50;55.60;;;;;;5133500;28;1048;-34
2021/12/01 11:32:46;;;;;;;;;;;22.50;55.60;;;;;;5133342;28;1011;-34
2021/12/01 11:35:16;;;;;;;;;;;22.50;55.60;;;;;;5137306;28;1781;-33
2021/12/01 11:37:43;;;;;;;;;;;22.50;55.60;;;;;;5136313;28;980;-34
2021/12/01 11:40:10;;;;;;;;;;;22.50;55.60;;;;;;5133470;28;916;-34
2021/12/01 11:42:37;;;;;;;;;;;22.50;55.50;;;;;;5132631;28;1988;-34
2021/12/01 11:45:06;;;;;;;;;;;22.50;55.50;;;;;;5133948;28;911;-34
2021/12/01 11:47:33;;;;;;;;;;;22.50;55.60;;;;;;5136293;28;987;-33
2021/12/01 11:50:03;;;;;;;;;;;22.50;55.60;;;;;;5135038;28;1001;-34
2021/12/01 11:52:36;;;;;;;;;;;22.50;55.60;;;;;;5133195;28;980;-34
2021/12/01 11:55:06;;;;;;;;;;;22.50;55.60;;;;;;5134515;28;1079;-35
2021/12/01 11:57:38;;;;;;;;;;;22.40;55.60;;;;;;5135847;28;896;-33
2021/12/01 12:00:08;;;;;;;;;;;22.40;55.70;;;;;;5134032;28;1023;-34
2021/12/01 12:02:36;;;;;;;;;;;22.30;55.60;;;;;;5133959;28;1984;-33
2021/12/01 12:05:15;;;;;;;;;;;22.30;55.70;;;;;;5136687;28;1178;-34
2021/12/01 12:07:44;;;;;;;;;;;22.30;55.90;;;;;;5137103;28;1046;-33
2021/12/01 12:10:13;;;;;;;;;;;22.40;55.80;;;;;;5134931;28;996;-33
2021/12/01 12:12:43;;;;;;;;;;;22.30;55.80;;;;;;5133076;28;1202;-33
2021/12/01 12:15:12;;;;;;;;;;;22.30;55.90;;;;;;5136483;28;1132;-34
2021/12/01 12:17:41;;;;;;;;;;;22.30;55.80;;;;;;5138446;27;940;-33
2021/12/01 12:20:17;;;;;;;;;;;22.30;55.80;;;;;;5138303;27;1767;-33
2021/12/01 12:22:58;;;;;;;;;;;22.20;55.80;;;;;;5138927;27;1974;-34
2021/12/01 12:25:39;;;;;;;;;;;22.20;55.80;;;;;;5140482;27;923;-33
2021/12/01 12:28:20;;;;;;;;;;;22.20;55.80;;;;;;5140300;27;1024;-34
2021/12/01 12:30:49;;;;;;;;;;;22.20;55.80;;;;;;5137280;27;975;-34
2021/12/01 12:33:17;;;;;;;;;;;22.20;55.80;;;;;;5139864;27;992;-33
2021/12/01 12:35:45;;;;;;;;;;;22.20;55.70;;;;;;5139789;27;980;-33
2021/12/01 12:38:15;;;;;;;;;;;22.20;55.70;;;;;;5140043;27;1004;-33
2021/12/01 12:40:44;;;;;;;;;;;22.30;55.70;;;;;;5135801;27;1576;-33
2021/12/01 12:43:11;;;;;;;;;;;22.30;55.70;;;;;;5137165;27;1909;-35
2021/12/01 12:45:39;;;;;;;;;;;22.30;55.60;;;;;;5139514;27;1007;-33
2021/12/01 12:48:27;;;;;;;;;;;22.30;55.70;;;;;;5140134;27;1007;-33
2021/12/01 12:51:07;;;;;;;;;;;22.30;55.80;;;;;;5136699;27;1559;-33
2021/12/01 12:53:34;;;;;;;;;;;22.30;55.70;;;;;;5136829;27;1106;-32
2021/12/01 12:56:20;;;;;;;;;;;22.40;55.90;;;;;;5139454;27;1082;-33
2021/12/01 12:58:49;;;;;;;;;;;22.40;55.60;;;;;;5139749;27;1086;-33
2021/12/01 13:01:23;;;;;;;;;;;22.40;55.70;;;;;;5137709;27;1017;-33
2021/12/01 13:03:51;;;;;;;;;;;22.40;55.60;;;;;;5139375;27;1905;-35
2021/12/01 13:06:26;;;;;;;;;;;22.40;55.60;;;;;;5139799;27;968;-34
2021/12/01 13:08:53;;;;;;;;;;;22.40;55.60;;;;;;5139873;27;968;-35
2021/12/01 13:11:20;;;;;;;;;;;22.40;55.70;;;;;;5135805;27;1086;-36
2021/12/01 13:13:50;;;;;;;;;;;22.40;55.60;;;;;;5139676;27;1025;-35
2021/12/01 13:16:18;;;;;;;;;;;22.40;55.80;;;;;;5139894;27;912;-35
2021/12/01 13:18:47;;;;;;;;;;;22.40;55.90;;;;;;5139989;27;992;-35
2021/12/01 13:21:14;;;;;;;;;;;22.40;56.00;;;;;;5138418;27;1041;-35
2021/12/01 13:23:42;;;;;;;;;;;22.40;55.90;;;;;;5138368;27;1906;-34
2021/12/01 13:26:10;;;;;;;;;;;22.40;55.90;;;;;;5139143;27;1461;-34
2021/12/01 13:28:38;;;;;;;;;;;22.50;55.90;;;;;;5138233;27;1147;-34
2021/12/01 13:31:07;;;;;;;;;;;22.40;55.80;;;;;;5136792;27;1007;-34
2021/12/01 13:33:34;;;;;;;;;;;22.40;55.90;;;;;;5137701;27;1031;-35
2021/12/01 13:36:15;;;;;;;;;;;22.40;57.10;;;;;;5139999;27;1034;-35
2021/12/01 13:38:43;;;;;;;;;;;22.40;55.90;;;;;;5138968;27;1056;-35
2021/12/01 13:41:13;;;;;;;;;;;22.40;56.00;;;;;;5137095;27;996;-35
2021/12/01 13:43:42;;;;;;;;;;;22.40;56.50;;;;;;5137196;27;1913;-34
2021/12/01 13:46:12;;;;;;;;;;;22.30;55.90;;;;;;5138812;27;992;-34
2021/12/01 13:48:50;;;;;;;;;;;22.40;56.00;;;;;;5139505;27;1072;-35
2021/12/01 13:51:17;;;;;;;;;;;22.30;56.00;;;;;;5137729;27;1012;-32
2021/12/01 13:53:44;;;;;;;;;;;22.30;56.00;;;;;;5137718;27;1003;-32
2021/12/01 13:56:14;;;;;;;;;;;22.30;56.00;;;;;;5137530;27;1035;-32
2021/12/01 13:58:41;;;;;;;;;;;22.30;56.00;;;;;;5138151;27;1572;-32
2021/12/01 14:01:13;;;;;;;;;;;22.30;56.00;;;;;;5135263;27;929;-34
2021/12/01 14:03:53;;;;;;;;;;;22.40;56.10;;;;;;5136228;27;1913;-32
2021/12/01 14:06:20;;;;;;;;;;;22.40;56.00;;;;;;5137938;27;1203;-32
2021/12/01 14:08:49;;;;;;;;;;;22.40;55.90;;;;;;5137896;27;1007;-33
2021/12/01 14:11:24;;;;;;;;;;;22.50;55.80;;;;;;5134258;27;995;-34
2021/12/01 14:13:52;;;;;;;;;;;22.50;55.80;;;;;;5137871;27;1019;-32
2021/12/01 14:16:21;;;;;;;;;;;22.50;55.70;;;;;;5137884;27;2135;-32
2021/12/01 14:18:50;;;;;;;;;;;22.50;55.70;;;;;;5137798;27;992;-33
2021/12/01 14:21:18;;;;;;;;;;;22.50;55.70;;;;;;5133231;27;993;-33
2021/12/01 14:23:46;;;;;;;;;;;22.50;55.70;;;;;;5137675;27;2000;-33
2021/12/01 14:26:14;;;;;;;;;;;22.50;55.70;;;;;;5139000;27;999;-33
2021/12/01 14:28:42;;;;;;;;;;;22.50;55.60;;;;;;5138563;27;1039;-34
2021/12/01 14:31:09;;;;;;;;;;;22.60;55.60;;;;;;5134303;27;1115;-34
2021/12/01 14:33:36;;;;;;;;;;;22.60;55.60;;;;;;5137273;27;967;-33
2021/12/01 14:36:06;;;;;;;;;;;22.60;55.50;;;;;;5137628;27;1090;-34
2021/12/01 14:38:33;;;;;;;;;;;22.50;55.50;;;;;;5136690;27;939;-33
2021/12/01 14:41:01;;;;;;;;;;;22.60;55.60;;;;;;5133327;27;956;-32
2021/12/01 14:43:31;;;;;;;;;;;22.50;55.40;;;;;;5135272;27;1890;-34
2021/12/01 14:46:03;;;;;;;;;;;22.60;55.50;;;;;;5138563;27;1335;-33
2021/12/01 14:48:33;;;;;;;;;;;22.60;55.40;;;;;;5137992;27;1506;-35
2021/12/01 14:51:05;;;;;;;;;;;22.50;55.40;;;;;;5135682;27;990;-32